createdAt,value
2023-04-22T00:00:17.137Z,11.47
2023-04-22T00:02:45.747Z,11.21
2023-04-22T00:05:17.067Z,11.28
2023-04-22T00:07:48.854Z,11.57
2023-04-22T00:10:16.798Z,11.66
2023-04-22T00:12:44.705Z,11.46
2023-04-22T00:15:13.212Z,11.35
2023-04-22T00:17:42.790Z,10.98
2023-04-22T00:20:12.703Z,10.90
2023-04-22T00:22:40.652Z,10.99
2023-04-22T00:25:10.695Z,11.26
2023-04-22T00:27:38.595Z,11.48
2023-04-22T00:30:07.669Z,11.52
2023-04-22T00:32:35.591Z,11.53
2023-04-22T00:35:03.531Z,11.53
2023-04-22T00:37:31.506Z,11.60
2023-04-22T00:39:59.410Z,11.44
2023-04-22T00:42:29.286Z,11.27
2023-04-22T00:44:58.175Z,11.23
2023-04-22T00:47:27.997Z,11.27
2023-04-22T00:49:56.008Z,11.36
2023-04-22T00:52:23.954Z,11.43
2023-04-22T00:54:52.648Z,11.26
2023-04-22T00:57:21.205Z,11.45
2023-04-22T00:59:51.012Z,11.49
2023-04-22T01:02:19.362Z,11.21
2023-04-22T01:04:48.118Z,11.20
2023-04-22T01:07:16.077Z,11.45
2023-04-22T01:09:44.521Z,11.52
2023-04-22T01:12:12.622Z,11.50
2023-04-22T01:14:41.036Z,11.57
2023-04-22T01:17:12.124Z,11.23
2023-04-22T01:19:40.506Z,10.99
2023-04-22T01:22:09.512Z,10.62
2023-04-22T01:24:38.957Z,10.51
2023-04-22T01:27:06.892Z,10.57
2023-04-22T01:29:34.956Z,10.35
2023-04-22T01:32:04.129Z,10.30
2023-04-22T01:34:32.782Z,10.29
2023-04-22T01:37:00.717Z,10.29
2023-04-22T01:39:28.894Z,10.46
2023-04-22T01:41:59.765Z,10.46
2023-04-22T01:44:27.948Z,10.64
2023-04-22T01:46:56.060Z,10.87
2023-04-22T01:49:24.012Z,10.99
2023-04-22T01:51:51.906Z,11.12
2023-04-22T01:54:19.860Z,11.14
2023-04-22T01:56:51.910Z,11.16
2023-04-22T01:59:21.583Z,11.21
2023-04-22T02:01:49.644Z,11.15
2023-04-22T02:04:17.646Z,11.26
2023-04-22T02:06:45.610Z,11.27
2023-04-22T02:09:13.528Z,11.12
2023-04-22T02:11:41.464Z,11.28
2023-04-22T02:14:09.444Z,11.20
2023-04-22T02:16:38.759Z,11.05
2023-04-22T02:19:06.676Z,11.04
2023-04-22T02:21:34.670Z,11.07
2023-04-22T02:24:02.624Z,11.20
2023-04-22T02:26:30.896Z,11.17
2023-04-22T02:28:58.848Z,11.04
2023-04-22T02:31:26.905Z,11.06
2023-04-22T02:33:56.256Z,11.04
2023-04-22T02:36:24.147Z,11.05
2023-04-22T02:38:52.075Z,11.06
2023-04-22T02:41:19.987Z,10.82
2023-04-22T02:43:47.904Z,10.83
2023-04-22T02:46:16.698Z,10.98
2023-04-22T02:48:44.787Z,11.08
2023-04-22T02:51:14.161Z,11.16
2023-04-22T02:53:42.199Z,11.12
2023-04-22T02:56:10.231Z,10.89
2023-04-22T02:58:38.168Z,10.96
2023-04-22T03:01:06.224Z,10.90
2023-04-22T03:03:34.401Z,10.86
2023-04-22T03:06:02.407Z,10.78
2023-04-22T03:08:31.711Z,10.69
2023-04-22T03:10:59.610Z,10.59
2023-04-22T03:13:27.594Z,10.58
2023-04-22T03:15:55.506Z,10.65
2023-04-22T03:18:23.442Z,10.51
2023-04-22T03:20:51.451Z,10.43
2023-04-22T03:23:19.373Z,10.48
2023-04-22T03:25:48.676Z,10.55
2023-04-22T03:28:16.611Z,10.39
2023-04-22T03:30:44.517Z,10.38
2023-04-22T03:33:12.644Z,10.36
2023-04-22T03:35:40.557Z,10.33
2023-04-22T03:38:08.527Z,10.48
2023-04-22T03:40:36.581Z,10.40
2023-04-22T03:43:05.837Z,10.38
2023-04-22T03:45:33.899Z,10.34
2023-04-22T03:48:01.894Z,10.42
2023-04-22T03:50:30.139Z,10.48
2023-04-22T03:52:58.051Z,10.53
2023-04-22T03:55:26.083Z,10.45
2023-04-22T03:57:53.995Z,10.40
2023-04-22T04:00:23.343Z,10.24
2023-04-22T04:02:51.381Z,10.19
2023-04-22T04:05:19.777Z,10.32
2023-04-22T04:07:47.966Z,10.33
2023-04-22T04:10:15.899Z,10.44
2023-04-22T04:12:43.794Z,10.41
2023-04-22T04:15:12.797Z,10.52
2023-04-22T04:17:42.496Z,10.65
2023-04-22T04:20:11.278Z,10.72
2023-04-22T04:22:39.237Z,10.79
2023-04-22T04:25:08.215Z,10.94
2023-04-22T04:27:36.103Z,11.05
2023-04-22T04:30:04.874Z,11.16
2023-04-22T04:32:34.416Z,11.25
2023-04-22T04:35:04.797Z,11.43
2023-04-22T04:37:32.735Z,11.55
2023-04-22T04:40:00.636Z,11.50
2023-04-22T04:42:30.470Z,11.73
2023-04-22T04:44:59.613Z,11.81
2023-04-22T04:47:28.541Z,12.01
2023-04-22T04:49:58.665Z,12.05
2023-04-22T04:52:28.203Z,12.30
2023-04-22T04:54:56.266Z,12.44
2023-04-22T04:57:24.179Z,12.61
2023-04-22T04:59:52.071Z,12.83
2023-04-22T05:02:20.164Z,13.07
2023-04-22T05:04:48.393Z,13.24
2023-04-22T05:07:16.576Z,13.42
2023-04-22T05:09:45.875Z,13.45
2023-04-22T05:12:13.770Z,13.60
2023-04-22T05:14:41.973Z,13.68
2023-04-22T05:17:09.920Z,13.89
2023-04-22T05:19:38.102Z,13.78
2023-04-22T05:22:06.200Z,13.72
2023-04-22T05:24:34.138Z,13.77
2023-04-22T05:27:03.694Z,13.88
2023-04-22T05:29:31.734Z,13.96
2023-04-22T05:31:59.674Z,13.85
2023-04-22T05:34:27.594Z,13.91
2023-04-22T05:36:55.841Z,13.64
2023-04-22T05:39:23.786Z,13.38
2023-04-22T05:41:51.712Z,13.53
2023-04-22T05:44:21.010Z,13.76
2023-04-22T05:46:48.947Z,13.82
2023-04-22T05:49:16.898Z,13.85
2023-04-22T05:51:44.803Z,13.78
2023-04-22T05:54:12.700Z,13.84
2023-04-22T05:56:40.679Z,13.95
2023-04-22T05:59:08.596Z,13.94
2023-04-22T06:01:38.420Z,14.29
2023-04-22T06:04:06.646Z,14.42
2023-04-22T06:06:34.855Z,14.56
2023-04-22T06:09:02.877Z,14.64
2023-04-22T06:11:30.844Z,14.82
2023-04-22T06:13:58.824Z,14.98
2023-04-22T06:16:26.820Z,15.13
2023-04-22T06:18:56.104Z,14.89
2023-04-22T06:21:24.188Z,14.91
2023-04-22T06:23:52.124Z,14.72
2023-04-22T06:26:20.161Z,14.86
2023-04-22T06:28:48.069Z,15.14
2023-04-22T06:31:17.607Z,15.13
2023-04-22T06:33:47.507Z,15.23
2023-04-22T06:36:16.826Z,15.17
2023-04-22T06:38:44.793Z,14.94
2023-04-22T06:41:12.678Z,14.97
2023-04-22T06:43:40.686Z,15.27
2023-04-22T06:46:08.686Z,15.12
2023-04-22T06:48:36.697Z,14.60
2023-04-22T06:51:04.874Z,14.89
2023-04-22T06:53:34.177Z,15.35
2023-04-22T06:56:02.150Z,15.05
2023-04-22T06:58:30.095Z,14.76
2023-04-22T07:00:58.028Z,14.85
2023-04-22T07:03:26.116Z,15.01
2023-04-22T07:05:54.313Z,15.30
2023-04-22T07:08:22.275Z,15.69
2023-04-22T07:10:51.612Z,16.00
2023-04-22T07:13:19.522Z,16.05
2023-04-22T07:15:47.720Z,16.07
2023-04-22T07:18:15.684Z,15.88
2023-04-22T07:20:43.602Z,15.88
2023-04-22T07:23:11.515Z,15.74
2023-04-22T07:25:39.407Z,15.83
2023-04-22T07:28:08.822Z,15.52
2023-04-22T07:30:36.756Z,15.76
2023-04-22T07:33:04.871Z,15.73
2023-04-22T07:35:32.966Z,15.71
2023-04-22T07:38:00.892Z,15.97
2023-04-22T07:40:28.996Z,15.93
2023-04-22T07:42:57.044Z,15.83
2023-04-22T07:45:26.466Z,16.16
2023-04-22T07:47:54.403Z,16.25
2023-04-22T07:50:22.463Z,16.31
2023-04-22T07:52:50.429Z,16.46
2023-04-22T07:55:18.412Z,16.38
2023-04-22T07:57:46.416Z,16.36
2023-04-22T08:00:15.763Z,16.45
2023-04-22T08:02:46.499Z,16.29
2023-04-22T08:05:14.659Z,16.08
2023-04-22T08:07:43.167Z,15.75
2023-04-22T08:10:11.749Z,16.42
2023-04-22T08:12:39.719Z,17.01
2023-04-22T08:15:08.626Z,17.54
2023-04-22T08:17:36.652Z,17.85
2023-04-22T08:20:08.910Z,17.20
2023-04-22T08:22:36.944Z,17.30
2023-04-22T08:25:07.755Z,17.65
2023-04-22T08:27:35.942Z,17.42
2023-04-22T08:30:04.040Z,17.44
2023-04-22T08:32:32.079Z,18.20
2023-04-22T08:35:04.820Z,17.64
2023-04-22T08:37:35.591Z,17.93
2023-04-22T08:40:04.877Z,17.66
2023-04-22T08:42:33.369Z,17.33
2023-04-22T08:45:03.210Z,17.55
2023-04-22T08:47:33.554Z,17.53
2023-04-22T08:50:04.243Z,17.38
2023-04-22T08:52:33.586Z,17.15
2023-04-22T08:55:02.984Z,17.23
2023-04-22T08:57:31.546Z,16.90
2023-04-22T09:00:00.911Z,17.04
2023-04-22T09:02:33.263Z,17.12
2023-04-22T09:05:03.649Z,17.38
2023-04-22T09:07:32.522Z,17.69
2023-04-22T09:10:02.480Z,17.67
2023-04-22T09:12:30.385Z,18.03
2023-04-22T09:14:58.527Z,17.99
2023-04-22T09:17:33.430Z,18.24
2023-04-22T09:20:02.679Z,18.71
2023-04-22T09:22:38.230Z,18.56
2023-04-22T09:25:09.538Z,17.70
2023-04-22T09:27:37.574Z,17.47
2023-04-22T09:30:11.390Z,17.26
2023-04-22T09:32:40.863Z,17.39
2023-04-22T09:35:09.519Z,17.75
2023-04-22T09:37:46.689Z,18.23
2023-04-22T09:40:20.094Z,18.38
2023-04-22T09:42:51.970Z,18.57
2023-04-22T09:45:30.867Z,18.55
2023-04-22T09:48:01.395Z,17.82
2023-04-22T09:50:30.170Z,18.41
2023-04-22T09:53:00.372Z,18.26
2023-04-22T09:55:31.180Z,18.22
2023-04-22T09:57:59.484Z,18.56
2023-04-22T10:00:31.974Z,18.48
2023-04-22T10:03:00.458Z,18.64
2023-04-22T10:05:29.676Z,18.58
2023-04-22T10:07:58.333Z,18.19
2023-04-22T10:10:26.813Z,18.34
2023-04-22T10:12:56.403Z,18.36
2023-04-22T10:15:26.915Z,18.69
2023-04-22T10:17:57.019Z,18.72
2023-04-22T10:20:26.816Z,19.02
2023-04-22T10:22:55.450Z,19.18
2023-04-22T10:25:25.686Z,18.53
2023-04-22T10:28:04.403Z,18.71
2023-04-22T10:30:35.245Z,18.67
2023-04-22T10:33:39.177Z,18.46
2023-04-22T10:36:09.744Z,18.36
2023-04-22T10:38:38.155Z,18.51
2023-04-22T10:41:06.584Z,18.51
2023-04-22T10:43:47.834Z,18.77
2023-04-22T10:46:53.603Z,18.72
2023-04-22T10:49:23.196Z,18.76
2023-04-22T10:51:52.355Z,18.71
2023-04-22T10:54:56.246Z,19.18
2023-04-22T10:57:24.616Z,18.61
2023-04-22T10:59:56.802Z,18.69
2023-04-22T11:02:26.349Z,18.60
2023-04-22T11:05:21.069Z,18.70
2023-04-22T11:07:50.915Z,18.68
2023-04-22T11:10:43.057Z,18.88
2023-04-22T11:13:14.459Z,19.20
2023-04-22T11:15:46.003Z,18.90
2023-04-22T11:18:21.122Z,19.70
2023-04-22T11:20:50.858Z,20.03
2023-04-22T11:23:21.286Z,19.48
2023-04-22T11:25:49.435Z,19.22
2023-04-22T11:28:18.948Z,19.25
2023-04-22T11:30:49.198Z,19.22
2023-04-22T11:33:17.980Z,19.42
2023-04-22T11:35:46.237Z,19.55
2023-04-22T11:38:14.755Z,19.17
2023-04-22T11:40:46.540Z,18.69
2023-04-22T11:43:15.505Z,18.92
2023-04-22T11:45:43.793Z,19.30
2023-04-22T11:48:13.630Z,19.81
2023-04-22T11:50:44.378Z,19.46
2023-04-22T11:53:17.066Z,18.64
2023-04-22T11:55:47.490Z,17.74
2023-04-22T11:58:18.044Z,18.00
2023-04-22T12:00:47.450Z,18.02
2023-04-22T12:03:18.574Z,18.32
2023-04-22T12:05:48.730Z,18.74
2023-04-22T12:08:18.912Z,18.86
2023-04-22T12:10:48.456Z,19.30
2023-04-22T12:13:21.376Z,19.50
2023-04-22T12:15:50.148Z,19.89
2023-04-22T12:18:29.908Z,19.77
2023-04-22T12:21:01.873Z,19.42
2023-04-22T12:23:29.845Z,19.29
2023-04-22T12:25:58.292Z,19.22
2023-04-22T12:28:26.454Z,18.95
2023-04-22T12:30:54.636Z,19.61
2023-04-22T12:33:24.437Z,19.50
2023-04-22T12:35:53.197Z,19.33
2023-04-22T12:38:21.236Z,18.50
2023-04-22T12:40:49.333Z,18.37
2023-04-22T12:43:17.292Z,17.98
2023-04-22T12:45:45.621Z,18.16
2023-04-22T12:48:13.884Z,18.63
2023-04-22T12:50:43.521Z,18.58
2023-04-22T12:53:11.769Z,18.46
2023-04-22T12:55:39.867Z,18.78
2023-04-22T12:58:07.836Z,18.97
2023-04-22T13:00:36.098Z,19.06
2023-04-22T13:03:04.212Z,18.86
2023-04-22T13:05:32.465Z,18.92
2023-04-22T13:08:07.309Z,18.85
2023-04-22T13:10:36.578Z,18.45
2023-04-22T13:13:17.767Z,18.71
2023-04-22T13:15:47.945Z,18.58
2023-04-22T13:18:17.200Z,18.58
2023-04-22T13:20:45.210Z,18.09
2023-04-22T13:23:15.663Z,18.28
2023-04-22T13:25:43.698Z,18.23
2023-04-22T13:28:12.584Z,18.25
2023-04-22T13:30:41.086Z,18.07
2023-04-22T13:33:09.188Z,18.29
2023-04-22T13:35:37.691Z,18.42
2023-04-22T13:38:07.497Z,18.54
2023-04-22T13:40:36.980Z,18.60
2023-04-22T13:43:05.287Z,18.43
2023-04-22T13:45:33.347Z,18.29
2023-04-22T13:48:01.465Z,18.11
2023-04-22T13:50:29.499Z,18.16
2023-04-22T13:52:57.518Z,18.16
2023-04-22T13:55:26.793Z,18.29
2023-04-22T13:57:56.247Z,18.55
2023-04-22T14:00:24.272Z,18.37
2023-04-22T14:02:52.421Z,18.20
2023-04-22T14:05:20.880Z,18.36
2023-04-22T14:07:49.350Z,18.33
2023-04-22T14:10:20.374Z,18.43
2023-04-22T14:12:48.418Z,18.14
2023-04-22T14:15:18.045Z,17.79
2023-04-22T14:17:49.427Z,17.90
2023-04-22T14:20:17.755Z,17.66
2023-04-22T14:22:46.366Z,17.67
2023-04-22T14:25:14.440Z,17.70
2023-04-22T14:27:42.523Z,17.68
2023-04-22T14:30:11.859Z,17.71
2023-04-22T14:32:41.630Z,17.99
2023-04-22T14:35:10.054Z,18.10
2023-04-22T14:37:39.234Z,18.14
2023-04-22T14:40:08.686Z,17.72
2023-04-22T14:42:37.084Z,17.80
2023-04-22T14:45:05.708Z,17.68
2023-04-22T14:47:33.711Z,17.83
2023-04-22T14:50:03.364Z,17.69
2023-04-22T14:52:33.075Z,17.39
2023-04-22T14:55:09.085Z,17.28
2023-04-22T14:57:47.891Z,17.32
2023-04-22T15:00:16.722Z,17.24
2023-04-22T15:02:46.020Z,17.51
2023-04-22T15:05:15.986Z,17.47
2023-04-22T15:07:44.237Z,17.34
2023-04-22T15:10:12.683Z,17.12
2023-04-22T15:12:41.855Z,17.22
2023-04-22T15:15:13.361Z,17.15
2023-04-22T15:17:41.948Z,17.16
2023-04-22T15:20:11.040Z,17.29
2023-04-22T15:22:42.303Z,17.43
2023-04-22T15:25:11.497Z,17.15
2023-04-22T15:27:40.148Z,17.18
2023-04-22T15:30:10.970Z,17.28
2023-04-22T15:32:40.293Z,16.99
2023-04-22T15:35:09.429Z,17.29
2023-04-22T15:37:37.780Z,17.13
2023-04-22T15:40:10.159Z,17.02
2023-04-22T15:42:38.242Z,16.82
2023-04-22T15:45:07.652Z,16.82
2023-04-22T15:47:36.702Z,16.70
2023-04-22T15:50:09.078Z,16.68
2023-04-22T15:52:38.998Z,16.79
2023-04-22T15:55:09.459Z,16.74
2023-04-22T15:57:37.613Z,16.88
2023-04-22T16:00:12.599Z,16.58
2023-04-22T16:02:42.724Z,16.59
2023-04-22T16:05:11.765Z,16.46
2023-04-22T16:07:40.358Z,16.66
2023-04-22T16:10:11.360Z,16.38
2023-04-22T16:12:39.276Z,16.56
2023-04-22T16:15:08.862Z,16.27
2023-04-22T16:17:36.927Z,16.24
2023-04-22T16:20:06.131Z,16.47
2023-04-22T16:22:34.539Z,16.20
2023-04-22T16:25:02.971Z,16.61
2023-04-22T16:27:32.635Z,16.33
2023-04-22T16:30:00.636Z,16.29
2023-04-22T16:32:28.802Z,16.16
2023-04-22T16:34:57.155Z,16.41
2023-04-22T16:37:25.305Z,16.35
2023-04-22T16:39:53.282Z,16.28
2023-04-22T16:42:21.564Z,16.09
2023-04-22T16:44:51.525Z,16.12
2023-04-22T16:47:19.900Z,16.35
2023-04-22T16:49:48.014Z,16.31
2023-04-22T16:52:16.136Z,16.27
2023-04-22T16:54:44.064Z,16.27
2023-04-22T16:57:12.538Z,15.94
2023-04-22T16:59:40.607Z,15.84
2023-04-22T17:02:10.400Z,15.58
2023-04-22T17:04:38.390Z,15.46
2023-04-22T17:07:06.319Z,15.26
2023-04-22T17:09:34.239Z,15.19
2023-04-22T17:12:02.208Z,15.03
2023-04-22T17:14:30.150Z,15.05
2023-04-22T17:16:58.073Z,15.09
2023-04-22T17:19:27.941Z,15.03
2023-04-22T17:21:56.053Z,15.00
2023-04-22T17:24:24.939Z,14.79
2023-04-22T17:26:52.956Z,14.85
2023-04-22T17:29:21.953Z,14.79
2023-04-22T17:31:50.319Z,14.64
2023-04-22T17:34:18.282Z,14.58
2023-04-22T17:36:47.627Z,14.45
2023-04-22T17:39:15.581Z,14.39
2023-04-22T17:41:43.597Z,14.21
2023-04-22T17:44:11.502Z,14.16
2023-04-22T17:46:41.246Z,14.01
2023-04-22T17:49:09.265Z,14.11
2023-04-22T17:51:37.234Z,13.94
2023-04-22T17:54:07.164Z,13.88
2023-04-22T17:56:35.463Z,13.76
2023-04-22T17:59:03.378Z,13.55
2023-04-22T18:01:31.465Z,13.55
2023-04-22T18:03:59.942Z,13.50
2023-04-22T18:06:29.057Z,13.56
2023-04-22T18:08:57.172Z,13.58
2023-04-22T18:11:27.989Z,13.54
2023-04-22T18:13:56.159Z,13.46
2023-04-22T18:16:24.200Z,13.44
2023-04-22T18:18:52.313Z,13.37
2023-04-22T18:21:20.509Z,13.28
2023-04-22T18:23:48.606Z,12.91
2023-04-22T18:26:16.764Z,13.18
2023-04-22T18:28:46.091Z,13.11
2023-04-22T18:31:14.101Z,13.09
2023-04-22T18:33:42.023Z,12.99
2023-04-22T18:36:10.216Z,12.98
2023-04-22T18:38:38.905Z,12.82
2023-04-22T18:41:07.057Z,12.72
2023-04-22T18:43:34.998Z,12.61
2023-04-22T18:46:04.350Z,12.39
2023-04-22T18:48:32.381Z,12.29
2023-04-22T18:51:00.326Z,12.38
2023-04-22T18:53:28.272Z,12.50
2023-04-22T18:55:56.469Z,12.39
2023-04-22T18:58:24.492Z,12.39
2023-04-22T19:00:53.015Z,12.16
2023-04-22T19:03:22.536Z,12.23
2023-04-22T19:05:51.140Z,12.13
2023-04-22T19:08:19.070Z,12.03
2023-04-22T19:10:47.051Z,12.08
2023-04-22T19:13:28.626Z,12.16
2023-04-22T19:15:58.042Z,12.18
2023-04-22T19:18:27.431Z,12.15
2023-04-22T19:20:55.480Z,12.11
2023-04-22T19:23:23.501Z,11.89
2023-04-22T19:25:51.666Z,11.70
2023-04-22T19:28:19.576Z,11.60
2023-04-22T19:30:47.660Z,11.64
2023-04-22T19:33:16.016Z,11.59
2023-04-22T19:35:45.814Z,11.54
2023-04-22T19:38:16.386Z,11.53
2023-04-22T19:40:44.331Z,11.65
2023-04-22T19:43:12.344Z,11.65
2023-04-22T19:45:40.252Z,11.57
2023-04-22T19:48:09.193Z,11.53
2023-04-22T19:50:37.374Z,11.49
2023-04-22T19:53:08.321Z,11.44
2023-04-22T19:55:37.516Z,11.43
2023-04-22T19:58:06.037Z,11.65
2023-04-22T20:00:35.299Z,11.61
2023-04-22T20:03:04.303Z,11.64
2023-04-22T20:05:32.849Z,11.60
2023-04-22T20:08:01.998Z,11.48
2023-04-22T20:10:31.792Z,11.45
2023-04-22T20:13:00.571Z,11.60
2023-04-22T20:15:28.798Z,11.68
2023-04-22T20:17:57.129Z,11.49
2023-04-22T20:20:25.690Z,11.60
2023-04-22T20:22:55.871Z,11.43
2023-04-22T20:25:24.950Z,11.50
2023-04-22T20:27:54.604Z,11.49
2023-04-22T20:30:22.701Z,11.19
2023-04-22T20:32:51.617Z,11.31
2023-04-22T20:35:20.189Z,11.33
2023-04-22T20:37:50.902Z,11.19
2023-04-22T20:40:19.166Z,11.23
2023-04-22T20:42:47.054Z,11.36
2023-04-22T20:45:17.963Z,11.29
2023-04-22T20:47:46.272Z,11.12
2023-04-22T20:50:14.862Z,10.99
2023-04-22T20:52:43.382Z,11.02
2023-04-22T20:55:11.483Z,11.05
2023-04-22T20:57:39.408Z,11.30
2023-04-22T21:00:10.258Z,11.37
2023-04-22T21:02:41.151Z,11.54
2023-04-22T21:05:11.982Z,11.59
2023-04-22T21:07:40.856Z,11.51
2023-04-22T21:10:10.348Z,11.39
2023-04-22T21:12:39.277Z,11.26
2023-04-22T21:15:08.845Z,11.29
2023-04-22T21:17:39.915Z,11.02
2023-04-22T21:20:11.543Z,11.42
2023-04-22T21:22:43.594Z,11.41
2023-04-22T21:25:15.974Z,11.35
2023-04-22T21:27:44.426Z,11.24
2023-04-22T21:30:13.846Z,11.23
2023-04-22T21:32:42.408Z,11.28
2023-04-22T21:35:12.351Z,11.25
2023-04-22T21:37:40.316Z,11.23
2023-04-22T21:40:13.068Z,11.28
2023-04-22T21:42:41.723Z,11.16
2023-04-22T21:45:10.324Z,11.11
2023-04-22T21:47:38.230Z,11.08
2023-04-22T21:50:07.304Z,11.10
2023-04-22T21:52:36.753Z,10.90
2023-04-22T21:55:05.009Z,10.80
2023-04-22T21:57:32.959Z,10.83
2023-04-22T22:00:01.279Z,10.89
2023-04-22T22:02:29.352Z,10.67
2023-04-22T22:04:57.332Z,10.77
2023-04-22T22:07:26.946Z,10.88
2023-04-22T22:09:56.224Z,10.98
2023-04-22T22:12:24.299Z,11.03
2023-04-22T22:14:52.223Z,11.01
2023-04-22T22:17:20.671Z,11.02
2023-04-22T22:19:48.763Z,10.99
2023-04-22T22:22:16.670Z,10.97
2023-04-22T22:24:45.590Z,10.92
2023-04-22T22:27:15.069Z,10.85
2023-04-22T22:29:42.982Z,10.86
2023-04-22T22:32:10.939Z,10.84
2023-04-22T22:34:39.197Z,10.80
2023-04-22T22:37:07.407Z,10.77
2023-04-22T22:39:35.710Z,10.66
2023-04-22T22:42:03.646Z,10.60
2023-04-22T22:44:32.952Z,10.43
2023-04-22T22:47:00.888Z,10.37
2023-04-22T22:49:28.868Z,10.46
2023-04-22T22:51:56.892Z,10.46
2023-04-22T22:54:24.801Z,10.43
2023-04-22T22:56:52.783Z,10.31
2023-04-22T22:59:20.724Z,10.33
2023-04-22T23:01:50.515Z,10.38
2023-04-22T23:04:18.682Z,10.16
2023-04-22T23:06:46.675Z,10.20
2023-04-22T23:09:18.851Z,10.21
2023-04-22T23:11:48.397Z,10.24
2023-04-22T23:14:17.909Z,10.15
2023-04-22T23:16:46.349Z,10.12
2023-04-22T23:19:17.119Z,10.15
2023-04-22T23:21:46.124Z,10.14
2023-04-22T23:24:16.158Z,10.14
2023-04-22T23:26:44.379Z,10.07
2023-04-22T23:29:12.801Z,9.90
2023-04-22T23:31:42.872Z,9.68
2023-04-22T23:34:11.042Z,9.34
2023-04-22T23:36:40.681Z,9.69
2023-04-22T23:39:09.768Z,9.82
2023-04-22T23:41:38.151Z,9.76
2023-04-22T23:44:06.498Z,9.69
2023-04-22T23:46:34.503Z,9.83
2023-04-22T23:49:03.007Z,9.85
2023-04-22T23:51:30.972Z,9.82
2023-04-22T23:54:00.304Z,9.80
2023-04-22T23:56:28.779Z,9.82
2023-04-22T23:58:57.385Z,9.87
